Главная страница
METAR-TAF:

METAR-TAF

Аэропорты :

Såtenäs, Швеция

широта: 58-26N, долгота: 012-42E, высота над уровнем моря: 54 м

Текущие метеонаблюдения

Эта сводка был подготовлена 48 минут назад, в 05:20 UTC
Ветер 12 Узел от южный
Температура 16°C
Влажность 94%
Давление 998 hPa
Видимость 10 км и более
небольшая облачность на высоте 3400 фута
Рассеянная облачность на высоте 20000 фута

METAR: ESIB 210520Z 17012KT 9999 FEW034 BKN200 16/15 Q0998

Время: 08:08 (06:08 UTC)


TAF: отсутствует

Метеонаблюдения и прогнозы для более 4000 аэропортов (сводки METAR и TAF).

Имеющиеся станции представлены на карте желтыми и красными точками.

Чтобы увидеть название станции, наведите на нее мышь.

Затем щелкните, чтобы увидеть метеонаблюдения и метеопрогнозы.

Управление картой: чтобы увеличить масштаб, щелкните зеленые кнопки с черным крестиком; чтобы уменьшить масштаб, щелкните зеленую кнопку с тире; для просмотра соседних карт щелкайте зеленые стрелки.


METAR-TAF: